createdAt,value
2023-01-19T00:01:01.630Z,-0.95
2023-01-19T00:03:28.210Z,-1.01
2023-01-19T00:05:57.257Z,-0.94
2023-01-19T00:08:23.907Z,-1.11
2023-01-19T00:10:50.811Z,-1.22
2023-01-19T00:13:17.225Z,-1.10
2023-01-19T00:15:44.115Z,-1.08
2023-01-19T00:18:11.103Z,-1.13
2023-01-19T00:20:38.641Z,-1.12
2023-01-19T00:23:05.328Z,-1.22
2023-01-19T00:25:32.005Z,-1.25
2023-01-19T00:28:00.589Z,-1.21
2023-01-19T00:30:27.946Z,-1.33
2023-01-19T00:32:54.338Z,-1.19
2023-01-19T00:35:20.813Z,-1.06
2023-01-19T00:37:47.245Z,-1.15
2023-01-19T00:40:14.290Z,-1.11
2023-01-19T00:42:41.418Z,-0.95
2023-01-19T00:45:10.019Z,-0.52
2023-01-19T00:47:36.975Z,-0.57
2023-01-19T00:50:03.525Z,-0.50
2023-01-19T00:52:29.806Z,-0.62
2023-01-19T00:54:56.272Z,-0.60
2023-01-19T00:57:22.570Z,-0.49
2023-01-19T00:59:48.948Z,-0.36
2023-01-19T01:02:15.584Z,-0.43
2023-01-19T01:04:42.232Z,-0.48
2023-01-19T01:07:08.582Z,-0.34
2023-01-19T01:09:34.886Z,-0.24
2023-01-19T01:12:01.322Z,-0.21
2023-01-19T01:14:28.113Z,0.10
2023-01-19T01:16:54.679Z,0.14
2023-01-19T01:19:21.760Z,0.17
2023-01-19T01:21:48.167Z,0.09
2023-01-19T01:24:14.547Z,0.03
2023-01-19T01:26:41.072Z,-0.12
2023-01-19T01:29:07.585Z,-0.30
2023-01-19T01:31:34.065Z,-0.48
2023-01-19T01:34:01.193Z,-0.43
2023-01-19T01:36:27.700Z,-0.29
2023-01-19T01:38:54.106Z,-0.40
2023-01-19T01:41:21.836Z,-0.44
2023-01-19T01:43:55.891Z,-0.46
2023-01-19T01:46:22.289Z,-0.54
2023-01-19T01:48:57.278Z,-0.70
2023-01-19T01:51:49.841Z,-0.27
2023-01-19T01:54:23.408Z,-0.60
2023-01-19T01:56:52.994Z,-0.55
2023-01-19T01:59:32.837Z,-0.75
2023-01-19T02:02:04.804Z,-0.76
2023-01-19T02:04:32.050Z,-0.36
2023-01-19T02:06:58.752Z,-0.55
2023-01-19T02:09:28.719Z,-0.50
2023-01-19T02:11:55.087Z,-0.72
2023-01-19T02:14:21.680Z,-0.62
2023-01-19T02:16:48.219Z,-0.62
2023-01-19T02:19:22.273Z,-0.63
2023-01-19T02:21:59.717Z,-0.59
2023-01-19T02:24:26.157Z,-0.75
2023-01-19T02:26:52.828Z,-0.17
2023-01-19T02:29:22.728Z,-0.17
2023-01-19T02:31:49.393Z,-0.41
2023-01-19T02:34:18.219Z,-0.23
2023-01-19T02:36:49.933Z,-0.31
2023-01-19T02:39:19.341Z,-0.38
2023-01-19T02:41:53.323Z,-0.56
2023-01-19T02:44:21.014Z,-0.72
2023-01-19T02:46:47.350Z,-0.77
2023-01-19T02:49:14.097Z,-0.80
2023-01-19T02:51:43.773Z,-0.82
2023-01-19T02:54:23.040Z,-0.72
2023-01-19T02:57:25.487Z,-0.20
2023-01-19T03:00:08.132Z,-0.29
2023-01-19T03:02:57.973Z,-0.54
2023-01-19T03:05:39.931Z,-0.67
2023-01-19T03:08:15.700Z,-0.64
2023-01-19T03:11:04.187Z,-0.77
2023-01-19T03:13:56.527Z,-0.61
2023-01-19T03:16:34.903Z,-0.03
2023-01-19T03:19:08.213Z,-0.06
2023-01-19T03:21:37.423Z,-0.11
2023-01-19T03:24:08.054Z,-0.36
2023-01-19T03:26:41.435Z,-0.06
2023-01-19T03:29:12.081Z,0.66
2023-01-19T03:31:41.419Z,0.32
2023-01-19T03:34:11.653Z,0.42
2023-01-19T03:36:46.097Z,0.11
2023-01-19T03:39:17.786Z,0.46
2023-01-19T03:41:48.593Z,0.42
2023-01-19T03:44:16.105Z,0.25
2023-01-19T03:46:43.210Z,-0.08
2023-01-19T03:49:09.819Z,-0.21
2023-01-19T03:51:38.494Z,0.59
2023-01-19T03:54:06.331Z,0.12
2023-01-19T03:56:33.201Z,0.00
2023-01-19T03:58:59.577Z,-0.23
2023-01-19T04:01:26.198Z,-0.08
2023-01-19T04:03:53.074Z,-0.31
2023-01-19T04:06:20.739Z,-0.42
2023-01-19T04:08:51.679Z,-0.59
2023-01-19T04:11:18.412Z,0.08
2023-01-19T04:13:44.866Z,0.07
2023-01-19T04:16:11.996Z,0.15
2023-01-19T04:18:38.330Z,0.53
2023-01-19T04:21:07.737Z,0.16
2023-01-19T04:23:34.908Z,0.74
2023-01-19T04:26:03.944Z,0.89
2023-01-19T04:28:30.725Z,0.55
2023-01-19T04:30:57.636Z,1.00
2023-01-19T04:33:24.809Z,0.82
2023-01-19T04:35:53.543Z,1.10
2023-01-19T04:38:20.839Z,1.12
2023-01-19T04:40:49.034Z,0.89
2023-01-19T04:43:15.515Z,0.93
2023-01-19T04:45:41.993Z,0.84
2023-01-19T04:48:08.650Z,1.14
2023-01-19T04:50:34.954Z,0.89
2023-01-19T04:53:01.697Z,0.87
2023-01-19T04:55:28.228Z,1.04
2023-01-19T04:57:55.049Z,1.50
2023-01-19T05:00:22.215Z,1.16
2023-01-19T05:02:48.629Z,1.04
2023-01-19T05:05:15.270Z,1.06
2023-01-19T05:07:43.039Z,1.13
2023-01-19T05:10:10.403Z,1.39
2023-01-19T05:12:37.035Z,1.18
2023-01-19T05:15:04.117Z,1.29
2023-01-19T05:17:30.502Z,1.08
2023-01-19T05:19:56.940Z,0.91
2023-01-19T05:22:23.234Z,1.45
2023-01-19T05:24:49.731Z,0.96
2023-01-19T05:27:16.055Z,1.37
2023-01-19T05:29:42.437Z,1.10
2023-01-19T05:32:08.746Z,0.86
2023-01-19T05:34:35.157Z,1.10
2023-01-19T05:37:01.507Z,0.97
2023-01-19T05:39:27.987Z,0.84
2023-01-19T05:41:54.358Z,0.97
2023-01-19T05:44:20.738Z,1.01
2023-01-19T05:46:47.141Z,1.21
2023-01-19T05:49:13.633Z,1.06
2023-01-19T05:51:40.131Z,0.78
2023-01-19T05:54:07.742Z,0.62
2023-01-19T05:56:34.427Z,0.74
2023-01-19T05:59:01.259Z,1.04
2023-01-19T06:01:27.767Z,0.89
2023-01-19T06:03:55.290Z,1.34
2023-01-19T06:06:21.784Z,0.93
2023-01-19T06:08:48.172Z,0.67
2023-01-19T06:11:14.556Z,1.24
2023-01-19T06:13:42.126Z,1.32
2023-01-19T06:16:09.133Z,0.77
2023-01-19T06:18:35.522Z,0.97
2023-01-19T06:21:09.668Z,1.00
2023-01-19T06:23:36.557Z,0.92
2023-01-19T06:26:03.364Z,0.84
2023-01-19T06:28:29.924Z,0.68
2023-01-19T06:30:56.553Z,0.94
2023-01-19T06:33:24.536Z,0.89
2023-01-19T06:35:51.775Z,1.02
2023-01-19T06:38:19.244Z,0.98
2023-01-19T06:40:51.635Z,0.95
2023-01-19T06:43:18.454Z,0.60
2023-01-19T06:45:46.087Z,0.61
2023-01-19T06:48:12.758Z,0.78
2023-01-19T06:50:39.301Z,0.59
2023-01-19T06:53:06.021Z,0.73
2023-01-19T06:55:32.513Z,0.81
2023-01-19T06:57:59.759Z,0.66
2023-01-19T07:00:26.555Z,0.59
2023-01-19T07:02:53.322Z,0.48
2023-01-19T07:05:19.768Z,0.39
2023-01-19T07:07:51.695Z,0.81
2023-01-19T07:10:18.094Z,0.37
2023-01-19T07:12:44.614Z,0.68
2023-01-19T07:15:11.189Z,0.38
2023-01-19T07:17:37.660Z,0.59
2023-01-19T07:20:04.483Z,0.76
2023-01-19T07:22:31.062Z,0.63
2023-01-19T07:24:57.416Z,0.81
2023-01-19T07:27:25.679Z,0.44
2023-01-19T07:29:52.095Z,0.61
2023-01-19T07:32:18.583Z,0.48
2023-01-19T07:34:45.067Z,-0.04
2023-01-19T07:37:11.388Z,0.16
2023-01-19T07:39:37.801Z,0.41
2023-01-19T07:42:04.569Z,0.40
2023-01-19T07:44:30.882Z,0.38
2023-01-19T07:46:57.293Z,0.06
2023-01-19T07:49:24.575Z,0.28
2023-01-19T07:51:52.627Z,0.80
2023-01-19T07:54:18.909Z,0.60
2023-01-19T07:56:45.319Z,0.40
2023-01-19T07:59:11.692Z,0.93
2023-01-19T08:01:39.478Z,1.02
2023-01-19T08:04:05.876Z,1.13
2023-01-19T08:06:38.699Z,1.25
2023-01-19T08:09:05.668Z,1.26
2023-01-19T08:11:32.627Z,1.37
2023-01-19T08:13:59.347Z,1.42
2023-01-19T08:16:25.676Z,1.35
2023-01-19T08:18:52.141Z,1.42
2023-01-19T08:21:18.548Z,1.65
2023-01-19T08:23:44.961Z,1.40
2023-01-19T08:26:26.151Z,1.63
2023-01-19T08:28:54.169Z,1.04
2023-01-19T08:31:24.361Z,1.35
2023-01-19T08:33:52.893Z,1.39
2023-01-19T08:36:19.987Z,1.60
2023-01-19T08:38:46.914Z,1.77
2023-01-19T08:41:17.316Z,1.43
2023-01-19T08:43:44.401Z,1.70
2023-01-19T08:46:14.898Z,1.33
2023-01-19T08:48:41.309Z,1.67
2023-01-19T08:51:10.574Z,2.00
2023-01-19T08:53:36.933Z,1.95
2023-01-19T08:56:03.512Z,2.41
2023-01-19T08:58:29.941Z,2.76
2023-01-19T09:00:56.563Z,3.47
2023-01-19T09:03:23.188Z,3.61
2023-01-19T09:05:50.155Z,3.62
2023-01-19T09:08:16.704Z,3.21
2023-01-19T09:10:50.705Z,3.09
2023-01-19T09:13:19.041Z,2.90
2023-01-19T09:15:45.767Z,3.09
2023-01-19T09:18:15.547Z,3.88
2023-01-19T09:20:43.714Z,3.99
2023-01-19T09:23:11.460Z,4.33
2023-01-19T09:25:39.377Z,4.34
2023-01-19T09:28:07.181Z,3.97
2023-01-19T09:30:34.130Z,4.03
2023-01-19T09:33:04.740Z,4.71
2023-01-19T09:35:31.145Z,4.53
2023-01-19T09:37:57.425Z,4.41
2023-01-19T09:40:24.103Z,5.08
2023-01-19T09:42:55.662Z,5.12
2023-01-19T09:45:31.396Z,4.57
2023-01-19T09:48:00.063Z,4.35
2023-01-19T09:50:31.768Z,4.19
2023-01-19T09:53:14.080Z,4.50
2023-01-19T09:55:41.527Z,4.38
2023-01-19T09:58:15.890Z,4.62
2023-01-19T10:00:47.170Z,4.59
2023-01-19T10:03:18.445Z,4.45
2023-01-19T10:05:55.432Z,4.24
2023-01-19T10:08:57.513Z,4.19
2023-01-19T10:11:51.595Z,4.35
2023-01-19T10:14:36.549Z,4.20
2023-01-19T10:17:16.912Z,4.35
2023-01-19T10:19:53.929Z,4.47
2023-01-19T10:22:26.759Z,4.70
2023-01-19T10:25:00.094Z,4.73
2023-01-19T10:27:29.382Z,4.97
2023-01-19T10:29:57.356Z,4.82
2023-01-19T10:32:27.061Z,4.74
2023-01-19T10:34:54.294Z,4.26
2023-01-19T10:37:41.680Z,3.95
2023-01-19T10:40:11.211Z,3.95
2023-01-19T10:42:40.251Z,3.96
2023-01-19T10:45:25.243Z,3.92
2023-01-19T10:47:53.604Z,3.70
2023-01-19T10:50:24.907Z,3.33
2023-01-19T10:52:54.239Z,3.48
2023-01-19T10:55:31.400Z,3.35
2023-01-19T10:57:59.638Z,3.20
2023-01-19T11:00:35.376Z,3.29
2023-01-19T11:03:02.477Z,2.98
2023-01-19T11:05:31.779Z,2.82
2023-01-19T11:07:58.513Z,3.09
2023-01-19T11:10:28.034Z,3.32
2023-01-19T11:12:54.480Z,3.39
2023-01-19T11:15:33.755Z,3.36
2023-01-19T11:18:02.563Z,3.69
2023-01-19T11:20:47.679Z,4.04
2023-01-19T11:23:13.910Z,4.02
2023-01-19T11:25:40.848Z,4.13
2023-01-19T11:28:17.537Z,4.06
2023-01-19T11:30:55.783Z,3.77
2023-01-19T11:33:45.704Z,3.67
2023-01-19T11:36:18.390Z,3.51
2023-01-19T11:38:48.115Z,3.75
2023-01-19T11:41:29.569Z,3.59
2023-01-19T11:44:19.352Z,3.21
2023-01-19T11:46:53.257Z,3.25
2023-01-19T11:49:42.110Z,3.20
2023-01-19T11:52:26.471Z,3.00
2023-01-19T11:55:04.034Z,2.84
2023-01-19T11:57:30.725Z,2.72
2023-01-19T11:59:57.417Z,2.78
2023-01-19T12:02:29.127Z,2.64
2023-01-19T12:05:04.597Z,2.62
2023-01-19T12:07:33.659Z,2.27
2023-01-19T12:10:14.484Z,2.25
2023-01-19T12:12:41.303Z,2.23
2023-01-19T12:15:26.245Z,2.52
2023-01-19T12:17:58.578Z,2.36
2023-01-19T12:20:43.063Z,2.33
2023-01-19T12:23:44.781Z,2.45
2023-01-19T12:26:35.497Z,2.57
2023-01-19T12:29:12.697Z,2.31
2023-01-19T12:31:40.686Z,2.30
2023-01-19T12:34:29.399Z,2.58
2023-01-19T12:37:00.649Z,2.53
2023-01-19T12:39:26.933Z,2.45
2023-01-19T12:42:07.579Z,2.45
2023-01-19T12:44:34.501Z,2.55
2023-01-19T12:47:18.805Z,2.45
2023-01-19T12:49:55.888Z,2.15
2023-01-19T12:52:32.210Z,2.27
2023-01-19T12:55:02.166Z,2.40
2023-01-19T12:57:51.583Z,2.49
2023-01-19T13:00:24.048Z,2.21
2023-01-19T13:03:13.602Z,2.10
2023-01-19T13:05:39.931Z,2.24
2023-01-19T13:08:06.486Z,2.26
2023-01-19T13:11:00.852Z,2.60
2023-01-19T13:13:38.659Z,2.47
2023-01-19T13:16:20.397Z,2.59
2023-01-19T13:19:09.526Z,2.49
2023-01-19T13:21:45.258Z,2.46
2023-01-19T13:24:20.634Z,2.02
2023-01-19T13:26:50.004Z,2.20
2023-01-19T13:29:32.820Z,2.22
2023-01-19T13:32:02.259Z,2.35
2023-01-19T13:34:31.827Z,2.21
2023-01-19T13:36:58.458Z,2.41
2023-01-19T13:39:41.698Z,2.08
2023-01-19T13:42:14.823Z,1.95
2023-01-19T13:44:46.170Z,2.04
2023-01-19T13:47:23.087Z,2.29
2023-01-19T13:49:55.570Z,1.96
2023-01-19T13:52:28.197Z,2.56
2023-01-19T13:55:04.203Z,2.61
2023-01-19T13:57:42.813Z,2.46
2023-01-19T14:00:12.228Z,2.17
2023-01-19T14:02:40.903Z,2.34
2023-01-19T14:05:37.851Z,2.14
2023-01-19T14:08:09.995Z,2.25
2023-01-19T14:10:38.901Z,1.88
2023-01-19T14:13:22.012Z,2.43
2023-01-19T14:15:50.432Z,2.39
2023-01-19T14:18:16.878Z,2.10
2023-01-19T14:20:57.608Z,1.99
2023-01-19T14:23:38.815Z,2.01
2023-01-19T14:26:06.027Z,2.31
2023-01-19T14:28:32.320Z,2.10
2023-01-19T14:31:03.984Z,1.86
2023-01-19T14:33:40.184Z,1.83
2023-01-19T14:36:27.374Z,1.78
2023-01-19T14:38:56.183Z,2.15
2023-01-19T14:41:44.986Z,2.35
2023-01-19T14:44:18.726Z,2.26
2023-01-19T14:46:47.811Z,2.06
2023-01-19T14:49:20.716Z,2.29
2023-01-19T14:51:48.913Z,2.41
2023-01-19T14:54:18.968Z,2.28
2023-01-19T14:56:45.316Z,2.06
2023-01-19T14:59:11.679Z,1.96
2023-01-19T15:01:38.146Z,1.79
2023-01-19T15:04:04.727Z,1.89
2023-01-19T15:06:32.840Z,1.68
2023-01-19T15:08:59.241Z,1.47
2023-01-19T15:11:31.111Z,1.43
2023-01-19T15:13:57.901Z,1.39
2023-01-19T15:16:25.974Z,1.39
2023-01-19T15:18:52.410Z,1.49
2023-01-19T15:21:20.568Z,1.34
2023-01-19T15:23:47.270Z,1.36
2023-01-19T15:26:16.963Z,1.53
2023-01-19T15:28:43.748Z,1.54
2023-01-19T15:31:16.019Z,1.63
2023-01-19T15:33:42.405Z,1.73
2023-01-19T15:36:20.049Z,1.90
2023-01-19T15:38:47.143Z,1.75
2023-01-19T15:41:39.832Z,1.58
2023-01-19T15:44:06.911Z,1.57
2023-01-19T15:46:33.274Z,1.57
2023-01-19T15:48:59.797Z,1.57
2023-01-19T15:51:26.757Z,1.61
2023-01-19T15:53:54.489Z,1.69
2023-01-19T15:56:29.652Z,1.79
2023-01-19T15:58:57.781Z,1.92
2023-01-19T16:01:26.587Z,1.72
2023-01-19T16:03:53.029Z,1.81
2023-01-19T16:06:19.377Z,1.78
2023-01-19T16:08:45.799Z,1.81
2023-01-19T16:11:14.311Z,1.87
2023-01-19T16:13:40.839Z,1.75
2023-01-19T16:16:13.448Z,1.83
2023-01-19T16:18:39.740Z,1.62
2023-01-19T16:21:06.155Z,1.93
2023-01-19T16:23:32.533Z,1.78
2023-01-19T16:26:01.374Z,1.93
2023-01-19T16:28:27.752Z,1.78
2023-01-19T16:30:54.327Z,1.63
2023-01-19T16:33:20.955Z,1.65
2023-01-19T16:35:47.254Z,1.79
2023-01-19T16:38:14.067Z,1.82
2023-01-19T16:40:40.451Z,1.75
2023-01-19T16:43:06.977Z,1.90
2023-01-19T16:45:33.347Z,1.85
2023-01-19T16:47:59.750Z,1.91
2023-01-19T16:50:26.170Z,1.86
2023-01-19T16:52:56.235Z,1.90
2023-01-19T16:55:22.543Z,1.84
2023-01-19T16:57:50.898Z,1.89
2023-01-19T17:00:17.847Z,1.91
2023-01-19T17:02:44.265Z,1.99
2023-01-19T17:05:10.896Z,2.19
2023-01-19T17:07:37.839Z,1.98
2023-01-19T17:10:04.619Z,1.88
2023-01-19T17:12:32.307Z,1.81
2023-01-19T17:14:58.914Z,1.74
2023-01-19T17:17:25.214Z,1.96
2023-01-19T17:19:51.584Z,1.89
2023-01-19T17:22:17.995Z,1.83
2023-01-19T17:24:44.414Z,1.79
2023-01-19T17:27:10.800Z,1.96
2023-01-19T17:29:37.184Z,1.96
2023-01-19T17:32:04.047Z,2.01
2023-01-19T17:34:30.428Z,1.89
2023-01-19T17:36:56.844Z,1.85
2023-01-19T17:39:24.616Z,2.08
2023-01-19T17:41:50.923Z,1.96
2023-01-19T17:44:17.804Z,1.99
2023-01-19T17:46:44.109Z,1.84
2023-01-19T17:49:10.915Z,1.80
2023-01-19T17:51:37.455Z,1.90
2023-01-19T17:54:04.409Z,1.83
2023-01-19T17:56:32.016Z,1.89
2023-01-19T17:58:59.286Z,1.90
2023-01-19T18:01:31.521Z,1.82
2023-01-19T18:03:58.534Z,1.74
2023-01-19T18:06:25.097Z,1.91
2023-01-19T18:08:51.512Z,2.06
2023-01-19T18:11:19.622Z,1.97
2023-01-19T18:13:47.770Z,1.83
2023-01-19T18:16:17.122Z,1.85
2023-01-19T18:18:43.652Z,1.99
2023-01-19T18:21:11.959Z,1.96
2023-01-19T18:23:38.798Z,1.85
2023-01-19T18:26:08.252Z,1.78
2023-01-19T18:28:35.368Z,1.79
2023-01-19T18:31:02.554Z,1.84
2023-01-19T18:33:29.399Z,1.75
2023-01-19T18:35:55.799Z,1.87
2023-01-19T18:38:22.206Z,1.82
2023-01-19T18:40:48.616Z,1.81
2023-01-19T18:43:14.979Z,1.77
2023-01-19T18:45:41.374Z,1.78
2023-01-19T18:48:08.234Z,1.81
2023-01-19T18:50:34.794Z,1.75
2023-01-19T18:53:01.204Z,1.86
2023-01-19T18:55:27.509Z,1.95
2023-01-19T18:57:54.204Z,1.97
2023-01-19T19:00:20.876Z,2.00
2023-01-19T19:02:47.194Z,2.14
2023-01-19T19:05:13.652Z,1.86
2023-01-19T19:07:40.052Z,1.92
2023-01-19T19:10:06.962Z,1.98
2023-01-19T19:12:33.265Z,1.91
2023-01-19T19:14:59.673Z,2.06
2023-01-19T19:17:26.117Z,2.10
2023-01-19T19:19:52.659Z,2.10
2023-01-19T19:22:20.079Z,2.09
2023-01-19T19:24:46.424Z,1.92
2023-01-19T19:27:12.839Z,1.81
2023-01-19T19:29:39.424Z,1.91
2023-01-19T19:32:05.845Z,1.88
2023-01-19T19:34:32.263Z,1.90
2023-01-19T19:37:01.076Z,1.77
2023-01-19T19:39:27.752Z,1.82
2023-01-19T19:41:54.211Z,1.84
2023-01-19T19:44:20.524Z,1.86
2023-01-19T19:46:46.899Z,1.97
2023-01-19T19:49:13.376Z,1.92
2023-01-19T19:51:39.839Z,2.00
2023-01-19T19:54:06.238Z,1.99
2023-01-19T19:56:32.631Z,2.08
2023-01-19T19:58:59.441Z,2.02
2023-01-19T20:01:30.629Z,2.06
2023-01-19T20:04:04.483Z,1.94
2023-01-19T20:06:30.855Z,1.96
2023-01-19T20:08:57.213Z,2.29
2023-01-19T20:11:26.701Z,1.95
2023-01-19T20:13:53.586Z,1.88
2023-01-19T20:16:22.940Z,1.94
2023-01-19T20:18:51.463Z,1.77
2023-01-19T20:21:23.449Z,1.79
2023-01-19T20:23:50.780Z,1.73
2023-01-19T20:26:19.928Z,1.83
2023-01-19T20:28:48.563Z,1.91
2023-01-19T20:31:28.917Z,1.75
2023-01-19T20:33:57.621Z,1.70
2023-01-19T20:36:24.467Z,1.83
2023-01-19T20:38:52.722Z,1.85
2023-01-19T20:41:20.396Z,2.10
2023-01-19T20:43:46.705Z,2.09
2023-01-19T20:46:13.256Z,2.08
2023-01-19T20:48:39.727Z,2.01
2023-01-19T20:51:08.833Z,1.99
2023-01-19T20:53:35.890Z,1.93
2023-01-19T20:56:07.015Z,1.76
2023-01-19T20:58:34.161Z,1.69
2023-01-19T21:01:00.706Z,1.77
2023-01-19T21:03:27.500Z,1.79
2023-01-19T21:05:53.807Z,2.02
2023-01-19T21:08:20.239Z,2.19
2023-01-19T21:10:46.604Z,2.04
2023-01-19T21:13:13.381Z,2.01
2023-01-19T21:15:39.714Z,1.86
2023-01-19T21:18:06.154Z,2.23
2023-01-19T21:20:32.467Z,2.03
2023-01-19T21:22:58.934Z,1.85
2023-01-19T21:25:25.424Z,1.66
2023-01-19T21:27:51.774Z,1.56
2023-01-19T21:30:18.700Z,1.37
2023-01-19T21:32:45.265Z,1.28
2023-01-19T21:35:11.812Z,1.17
2023-01-19T21:37:38.524Z,1.07
2023-01-19T21:40:05.470Z,1.04
2023-01-19T21:42:31.784Z,0.91
2023-01-19T21:44:58.844Z,0.87
2023-01-19T21:47:25.208Z,0.84
2023-01-19T21:49:51.632Z,0.72
2023-01-19T21:52:17.948Z,0.67
2023-01-19T21:54:44.364Z,0.50
2023-01-19T21:57:10.661Z,0.51
2023-01-19T21:59:36.953Z,0.41
2023-01-19T22:02:03.435Z,0.32
2023-01-19T22:04:29.879Z,0.29
2023-01-19T22:06:57.753Z,0.21
2023-01-19T22:09:24.141Z,0.19
2023-01-19T22:11:50.859Z,0.17
2023-01-19T22:14:17.257Z,0.15
2023-01-19T22:16:44.088Z,0.15
2023-01-19T22:19:11.691Z,0.15
2023-01-19T22:21:38.089Z,0.25
2023-01-19T22:24:05.358Z,0.30
2023-01-19T22:26:32.941Z,0.36
2023-01-19T22:29:00.904Z,0.40
2023-01-19T22:31:28.832Z,0.35
2023-01-19T22:33:55.395Z,0.41
2023-01-19T22:36:28.096Z,0.48
2023-01-19T22:39:00.223Z,0.50
2023-01-19T22:41:32.113Z,0.56
2023-01-19T22:44:03.141Z,0.63
2023-01-19T22:46:33.032Z,0.68
2023-01-19T22:48:59.834Z,0.77
2023-01-19T22:51:27.383Z,1.08
2023-01-19T22:53:53.822Z,1.34
2023-01-19T22:56:28.626Z,1.46
2023-01-19T22:58:55.861Z,1.33
2023-01-19T23:01:26.944Z,1.36
2023-01-19T23:03:54.635Z,1.35
2023-01-19T23:06:29.856Z,1.38
2023-01-19T23:08:59.420Z,1.58
2023-01-19T23:11:28.528Z,1.44
2023-01-19T23:13:55.316Z,1.34
2023-01-19T23:16:22.032Z,1.30
2023-01-19T23:18:52.923Z,1.30
2023-01-19T23:21:22.670Z,1.25
2023-01-19T23:23:49.234Z,1.25
2023-01-19T23:26:21.156Z,1.23
2023-01-19T23:28:53.248Z,1.22
2023-01-19T23:31:20.813Z,1.23
2023-01-19T23:33:47.248Z,1.22
2023-01-19T23:36:14.407Z,1.24
2023-01-19T23:38:41.807Z,1.19
2023-01-19T23:41:08.794Z,1.27
2023-01-19T23:43:35.545Z,1.27
2023-01-19T23:46:07.056Z,1.34
2023-01-19T23:48:34.583Z,1.36
2023-01-19T23:51:12.320Z,1.35
2023-01-19T23:53:38.969Z,1.31
2023-01-19T23:56:14.655Z,1.30
2023-01-19T23:58:41.413Z,1.34
